Time;durP1;ratioP1;P1;durP2;ratioP2;P2;SDS_P1;SDS_P2;PMS_P1;PMS_P2;Temp;Humidity;BMP_temperature;BMP_pressure;BME280_temperature;BME280_humidity;BME280_pressure;Samples;Min_cycle;Max_cycle;Signal;HPM_P1;HPM_P2
2023/07/16 00:02:01;;;;;;;;;;;26.70;57.90;;;;;;5094284;28;19977;-55
2023/07/16 00:04:28;;;;;;;;;;;26.70;57.90;;;;;;5094751;28;20034;-56
2023/07/16 00:06:55;;;;;;;;;;;26.70;57.90;;;;;;5094344;28;19927;-57
2023/07/16 00:09:23;;;;;;;;;;;26.70;57.90;;;;;;5094253;28;19942;-55
2023/07/16 00:11:50;;;;;;;;;;;26.70;57.90;;;;;;5094230;28;19978;-56
2023/07/16 00:14:17;;;;;;;;;;;26.70;57.90;;;;;;5094641;28;19993;-56
2023/07/16 00:16:44;;;;;;;;;;;26.70;57.90;;;;;;5094460;28;19931;-54
2023/07/16 00:19:12;;;;;;;;;;;26.70;57.90;;;;;;5094523;28;19928;-56
2023/07/16 00:21:39;;;;;;;;;;;26.70;57.90;;;;;;5094158;28;19924;-55
2023/07/16 00:24:06;;;;;;;;;;;26.70;57.90;;;;;;5094157;28;20370;-56
2023/07/16 00:26:33;;;;;;;;;;;26.70;57.90;;;;;;5094126;28;19924;-54
2023/07/16 00:29:00;;;;;;;;;;;26.70;58.00;;;;;;5093214;28;19924;-56
2023/07/16 00:31:27;;;;;;;;;;;26.70;58.00;;;;;;5093786;28;20403;-54
2023/07/16 00:33:54;;;;;;;;;;;26.60;57.90;;;;;;5094416;28;20070;-55
2023/07/16 00:36:21;;;;;;;;;;;26.70;58.00;;;;;;5094242;28;19931;-58
2023/07/16 00:38:48;;;;;;;;;;;26.60;57.90;;;;;;5093313;28;19967;-55
2023/07/16 00:41:15;;;;;;;;;;;26.60;57.90;;;;;;5093958;28;20299;-55
2023/07/16 00:43:41;;;;;;;;;;;26.60;57.90;;;;;;5094173;28;19985;-56
2023/07/16 00:46:09;;;;;;;;;;;26.60;57.90;;;;;;5094120;28;19924;-55
2023/07/16 00:48:36;;;;;;;;;;;26.70;58.00;;;;;;5093825;28;19931;-55
2023/07/16 00:51:05;;;;;;;;;;;26.70;58.00;;;;;;5093785;28;20288;-56
2023/07/16 00:53:32;;;;;;;;;;;26.60;57.90;;;;;;5093684;28;19977;-56
2023/07/16 00:55:59;;;;;;;;;;;26.70;57.90;;;;;;5093837;28;20376;-54
2023/07/16 00:58:26;;;;;;;;;;;26.70;58.00;;;;;;5093374;28;19924;-56
2023/07/16 01:00:53;;;;;;;;;;;26.70;58.00;;;;;;5094052;28;20007;-55
2023/07/16 01:03:20;;;;;;;;;;;26.70;57.90;;;;;;5093995;28;20330;-56
2023/07/16 01:05:51;;;;;;;;;;;26.70;57.90;;;;;;5093531;28;19977;-56
2023/07/16 01:08:21;;;;;;;;;;;26.70;57.90;;;;;;5093321;28;19970;-55
2023/07/16 01:10:49;;;;;;;;;;;26.70;57.90;;;;;;5093247;28;20018;-56
2023/07/16 01:13:16;;;;;;;;;;;26.60;57.90;;;;;;5094200;28;19965;-57
2023/07/16 01:15:43;;;;;;;;;;;26.70;57.90;;;;;;5098104;28;20064;-56
2023/07/16 01:18:10;;;;;;;;;;;26.70;57.90;;;;;;5097610;28;19924;-56
2023/07/16 01:20:37;;;;;;;;;;;26.70;57.90;;;;;;5097028;28;20366;-57
2023/07/16 01:23:23;;;;;;;;;;;26.70;57.90;;;;;;5097549;28;19924;-55
2023/07/16 01:26:10;;;;;;;;;;;26.70;57.90;;;;;;5097001;28;19978;-55
2023/07/16 01:28:57;;;;;;;;;;;26.70;57.90;;;;;;5096424;28;19924;-56
2023/07/16 01:31:24;;;;;;;;;;;26.70;57.90;;;;;;5097128;28;19924;-53
2023/07/16 01:33:51;;;;;;;;;;;26.60;57.80;;;;;;5097340;28;20022;-55
2023/07/16 01:36:19;;;;;;;;;;;26.70;57.90;;;;;;5097410;28;19931;-56
2023/07/16 01:38:46;;;;;;;;;;;26.60;57.80;;;;;;5095861;28;20360;-56
2023/07/16 01:41:13;;;;;;;;;;;26.60;57.80;;;;;;5097174;28;19985;-55
2023/07/16 01:43:40;;;;;;;;;;;26.60;57.80;;;;;;5097445;28;19970;-56
2023/07/16 01:46:07;;;;;;;;;;;26.60;57.90;;;;;;5097189;28;19924;-56
2023/07/16 01:48:35;;;;;;;;;;;26.60;57.90;;;;;;5097216;28;19930;-55
2023/07/16 01:51:02;;;;;;;;;;;26.60;57.90;;;;;;5096344;28;19967;-53
2023/07/16 01:53:31;;;;;;;;;;;26.60;57.90;;;;;;5097321;28;20322;-54
2023/07/16 01:55:58;;;;;;;;;;;26.60;57.90;;;;;;5096434;28;19954;-56
2023/07/16 01:58:25;;;;;;;;;;;26.60;57.90;;;;;;5096174;28;19978;-56
2023/07/16 02:00:52;;;;;;;;;;;26.60;57.90;;;;;;5097182;28;19977;-56
2023/07/16 02:03:19;;;;;;;;;;;26.60;57.90;;;;;;5096744;28;19931;-53
2023/07/16 02:05:46;;;;;;;;;;;26.60;57.90;;;;;;5096485;28;20273;-56
2023/07/16 02:08:13;;;;;;;;;;;26.60;57.90;;;;;;5094842;28;19935;-56
2023/07/16 02:10:40;;;;;;;;;;;26.60;58.00;;;;;;5095517;28;19977;-56
2023/07/16 02:13:07;;;;;;;;;;;26.60;58.50;;;;;;5095685;28;19924;-55
2023/07/16 02:15:34;;;;;;;;;;;26.60;58.00;;;;;;5095314;28;20022;-56
2023/07/16 02:18:01;;;;;;;;;;;26.60;58.00;;;;;;5095102;28;19969;-56
2023/07/16 02:20:28;;;;;;;;;;;26.60;58.00;;;;;;5095593;28;20034;-56
2023/07/16 02:22:55;;;;;;;;;;;26.50;58.00;;;;;;5094058;28;20388;-56
2023/07/16 02:25:22;;;;;;;;;;;26.50;57.90;;;;;;5095182;28;19963;-56
2023/07/16 02:27:49;;;;;;;;;;;26.50;57.90;;;;;;5095499;28;19924;-56
2023/07/16 02:30:16;;;;;;;;;;;26.50;58.00;;;;;;5095127;28;19977;-56
2023/07/16 02:32:43;;;;;;;;;;;26.50;58.00;;;;;;5095362;28;19989;-56
2023/07/16 02:35:11;;;;;;;;;;;26.50;58.00;;;;;;5094930;28;19924;-56
2023/07/16 02:37:38;;;;;;;;;;;26.50;58.00;;;;;;5094899;28;19978;-56
2023/07/16 02:40:06;;;;;;;;;;;26.50;58.00;;;;;;5094743;28;19932;-56
2023/07/16 02:42:33;;;;;;;;;;;26.50;58.00;;;;;;5094863;28;20446;-55
2023/07/16 02:45:00;;;;;;;;;;;26.50;58.00;;;;;;5095220;28;19967;-54
2023/07/16 02:47:27;;;;;;;;;;;26.50;58.00;;;;;;5094854;28;20439;-55
2023/07/16 02:49:54;;;;;;;;;;;26.50;58.00;;;;;;5094344;28;20449;-55
2023/07/16 02:52:21;;;;;;;;;;;26.50;58.00;;;;;;5095013;28;19924;-56
2023/07/16 02:54:48;;;;;;;;;;;26.50;58.00;;;;;;5094714;28;19986;-56
2023/07/16 02:57:15;;;;;;;;;;;26.50;58.10;;;;;;5093050;28;19982;-54
2023/07/16 02:59:42;;;;;;;;;;;26.50;58.00;;;;;;5094566;28;19928;-54
2023/07/16 03:02:09;;;;;;;;;;;26.50;58.00;;;;;;5094911;28;20007;-56
2023/07/16 03:04:36;;;;;;;;;;;26.50;58.00;;;;;;5094682;28;20019;-55
2023/07/16 03:07:03;;;;;;;;;;;26.50;58.00;;;;;;5025123;28;1971063;-56
2023/07/16 03:09:30;;;;;;;;;;;26.50;58.00;;;;;;5095892;28;19924;-56
2023/07/16 03:11:57;;;;;;;;;;;26.50;58.00;;;;;;5095730;28;19970;-56
2023/07/16 03:14:24;;;;;;;;;;;26.50;58.00;;;;;;5095431;28;19924;-56
2023/07/16 03:16:51;;;;;;;;;;;26.50;58.00;;;;;;5095691;28;19969;-57
2023/07/16 03:19:18;;;;;;;;;;;26.50;58.50;;;;;;5095200;28;19924;-55
2023/07/16 03:21:45;;;;;;;;;;;26.50;58.20;;;;;;5095260;28;20007;-55
2023/07/16 03:24:12;;;;;;;;;;;26.50;57.90;;;;;;5095333;28;20430;-55
2023/07/16 03:26:39;;;;;;;;;;;26.50;57.90;;;;;;5095099;28;19924;-53
2023/07/16 03:29:06;;;;;;;;;;;26.60;58.00;;;;;;5094971;28;19930;-56
2023/07/16 03:31:33;;;;;;;;;;;26.60;57.90;;;;;;5095318;28;19928;-56
2023/07/16 03:34:00;;;;;;;;;;;26.60;57.90;;;;;;5093853;28;19924;-55
2023/07/16 03:36:27;;;;;;;;;;;26.60;57.80;;;;;;5094475;28;19924;-56
2023/07/16 03:38:54;;;;;;;;;;;26.60;57.80;;;;;;5095267;28;19924;-55
2023/07/16 03:41:21;;;;;;;;;;;26.60;57.80;;;;;;5095035;28;19930;-55
2023/07/16 03:43:48;;;;;;;;;;;26.60;57.80;;;;;;5095123;28;19931;-55
2023/07/16 03:46:15;;;;;;;;;;;26.60;57.70;;;;;;5094899;28;19946;-56
2023/07/16 03:48:42;;;;;;;;;;;26.60;57.70;;;;;;5095162;28;20307;-57
2023/07/16 03:51:09;;;;;;;;;;;26.70;57.70;;;;;;5094928;28;19993;-54
2023/07/16 03:53:36;;;;;;;;;;;26.70;57.90;;;;;;5094477;28;19924;-56
2023/07/16 03:56:03;;;;;;;;;;;26.70;57.60;;;;;;5095004;28;19928;-56
2023/07/16 03:58:30;;;;;;;;;;;26.70;57.60;;;;;;5094313;28;20003;-55
2023/07/16 04:00:57;;;;;;;;;;;26.70;57.60;;;;;;5094632;28;20266;-57
2023/07/16 04:03:24;;;;;;;;;;;26.70;57.50;;;;;;5094807;28;19924;-56
2023/07/16 04:05:51;;;;;;;;;;;26.70;57.50;;;;;;5093164;28;19924;-56
2023/07/16 04:08:18;;;;;;;;;;;26.70;57.40;;;;;;5094694;28;19924;-55
2023/07/16 04:10:45;;;;;;;;;;;26.80;57.40;;;;;;5094397;28;19979;-56
2023/07/16 04:13:12;;;;;;;;;;;26.80;57.40;;;;;;5094229;28;20365;-56
2023/07/16 04:15:39;;;;;;;;;;;26.80;57.40;;;;;;5094627;28;19924;-54
2023/07/16 04:18:06;;;;;;;;;;;26.80;57.40;;;;;;5094300;28;19975;-55
2023/07/16 04:20:33;;;;;;;;;;;26.80;57.40;;;;;;5094415;28;19928;-55
2023/07/16 04:23:00;;;;;;;;;;;26.80;57.50;;;;;;5094503;28;20023;-56
2023/07/16 04:25:27;;;;;;;;;;;26.80;57.80;;;;;;5094178;28;20352;-56
2023/07/16 04:27:55;;;;;;;;;;;26.80;57.20;;;;;;5092998;28;20257;-55
2023/07/16 04:30:22;;;;;;;;;;;26.90;57.30;;;;;;5094140;28;20019;-56
2023/07/16 04:32:49;;;;;;;;;;;26.90;57.20;;;;;;5093978;28;19967;-54
2023/07/16 04:35:16;;;;;;;;;;;26.90;57.20;;;;;;5094268;28;19974;-56
2023/07/16 04:37:43;;;;;;;;;;;26.80;57.20;;;;;;5094176;28;19969;-56
2023/07/16 04:40:10;;;;;;;;;;;26.70;57.40;;;;;;5093998;28;19924;-54
2023/07/16 04:42:37;;;;;;;;;;;26.70;57.70;;;;;;5093849;28;19924;-55
2023/07/16 04:45:05;;;;;;;;;;;26.60;57.90;;;;;;5094237;28;19928;-55
2023/07/16 04:47:32;;;;;;;;;;;26.40;57.40;;;;;;5092714;28;19928;-55
2023/07/16 04:49:59;;;;;;;;;;;26.20;57.00;;;;;;5094163;28;19924;-55
2023/07/16 04:52:26;;;;;;;;;;;26.00;56.30;;;;;;5093934;28;19994;-55
2023/07/16 04:54:53;;;;;;;;;;;25.70;56.60;;;;;;5093679;28;19974;-55
2023/07/16 04:57:20;;;;;;;;;;;25.50;55.40;;;;;;5092788;28;20277;-56
2023/07/16 04:59:49;;;;;;;;;;;25.20;55.30;;;;;;5094106;28;19924;-56
2023/07/16 05:02:17;;;;;;;;;;;25.00;55.20;;;;;;5093575;28;20392;-54
2023/07/16 05:04:44;;;;;;;;;;;24.70;55.00;;;;;;5093724;28;19935;-55
2023/07/16 05:07:11;;;;;;;;;;;24.40;55.10;;;;;;5093543;28;19924;-55
2023/07/16 05:09:38;;;;;;;;;;;24.10;55.20;;;;;;5093591;28;19924;-53
2023/07/16 05:12:05;;;;;;;;;;;23.90;54.80;;;;;;5093442;28;19924;-55
2023/07/16 05:14:42;;;;;;;;;;;23.60;54.80;;;;;;5093302;28;19924;-55
2023/07/16 05:17:09;;;;;;;;;;;23.40;55.20;;;;;;5093408;28;19970;-55
2023/07/16 05:19:36;;;;;;;;;;;23.10;56.10;;;;;;5093496;28;19978;-55
2023/07/16 05:22:03;;;;;;;;;;;22.90;55.40;;;;;;5093467;28;19924;-55
2023/07/16 05:24:30;;;;;;;;;;;22.70;55.50;;;;;;5092253;28;20385;-55
2023/07/16 05:26:57;;;;;;;;;;;22.50;55.70;;;;;;5093705;28;19924;-55
2023/07/16 05:29:24;;;;;;;;;;;22.40;56.00;;;;;;5093771;28;19998;-55
2023/07/16 05:31:51;;;;;;;;;;;22.20;56.00;;;;;;5093121;28;20281;-55
2023/07/16 05:34:18;;;;;;;;;;;22.10;56.60;;;;;;5093456;28;19930;-54
2023/07/16 05:36:45;;;;;;;;;;;21.90;56.30;;;;;;5093279;28;19950;-55
2023/07/16 05:39:12;;;;;;;;;;;21.80;56.20;;;;;;5093201;28;19924;-54
2023/07/16 05:41:39;;;;;;;;;;;21.70;57.20;;;;;;5092694;28;19924;-55
2023/07/16 05:44:06;;;;;;;;;;;21.60;57.30;;;;;;5093265;28;19924;-55
2023/07/16 05:46:34;;;;;;;;;;;21.50;57.50;;;;;;5093532;28;20312;-56
2023/07/16 05:49:01;;;;;;;;;;;21.40;57.50;;;;;;5093193;28;20293;-55
2023/07/16 05:51:28;;;;;;;;;;;21.40;57.80;;;;;;5093341;28;20395;-53
2023/07/16 05:53:55;;;;;;;;;;;21.40;58.20;;;;;;5093553;28;19924;-55
2023/07/16 05:56:22;;;;;;;;;;;21.30;58.20;;;;;;5093330;28;19931;-54
2023/07/16 05:58:49;;;;;;;;;;;21.30;59.00;;;;;;5093217;28;20039;-55
2023/07/16 06:01:16;;;;;;;;;;;21.30;58.90;;;;;;5097100;28;19945;-54
2023/07/16 06:03:43;;;;;;;;;;;21.30;59.00;;;;;;5097077;28;20014;-54
2023/07/16 06:06:10;;;;;;;;;;;21.30;59.40;;;;;;5096866;28;20364;-53
2023/07/16 06:08:37;;;;;;;;;;;21.30;59.20;;;;;;5096074;28;19932;-55
2023/07/16 06:11:04;;;;;;;;;;;21.20;59.70;;;;;;5096912;28;20285;-53
2023/07/16 06:13:31;;;;;;;;;;;21.20;59.80;;;;;;5096729;28;19924;-55
2023/07/16 06:15:58;;;;;;;;;;;21.20;59.60;;;;;;5096580;28;19924;-53
2023/07/16 06:18:25;;;;;;;;;;;21.10;60.10;;;;;;5096214;28;19953;-55
2023/07/16 06:20:52;;;;;;;;;;;21.10;59.90;;;;;;5096499;28;19924;-54
2023/07/16 06:23:19;;;;;;;;;;;21.00;61.00;;;;;;5096698;28;19969;-54
2023/07/16 06:25:48;;;;;;;;;;;21.10;60.80;;;;;;5096495;28;19924;-53
2023/07/16 06:28:15;;;;;;;;;;;21.10;61.00;;;;;;5096396;28;19928;-53
2023/07/16 06:30:42;;;;;;;;;;;21.20;61.30;;;;;;5096277;28;19970;-54
2023/07/16 06:33:09;;;;;;;;;;;21.20;61.60;;;;;;5096480;28;20326;-54
2023/07/16 06:35:36;;;;;;;;;;;21.30;61.50;;;;;;5096315;28;19924;-54
2023/07/16 06:38:04;;;;;;;;;;;21.30;61.80;;;;;;5095657;28;20411;-55
2023/07/16 06:40:31;;;;;;;;;;;21.30;61.60;;;;;;5096444;28;19946;-55
2023/07/16 06:42:58;;;;;;;;;;;21.30;61.90;;;;;;5095987;28;20310;-55
2023/07/16 06:45:25;;;;;;;;;;;21.30;61.60;;;;;;5096366;28;20338;-55
2023/07/16 06:47:52;;;;;;;;;;;21.30;61.60;;;;;;5096264;28;19977;-54
2023/07/16 06:50:19;;;;;;;;;;;21.40;61.80;;;;;;5096225;28;20269;-53
2023/07/16 06:52:46;;;;;;;;;;;21.40;62.00;;;;;;5095810;28;19924;-54
2023/07/16 06:55:13;;;;;;;;;;;21.40;62.10;;;;;;5095875;28;19924;-55
2023/07/16 06:57:40;;;;;;;;;;;21.40;62.00;;;;;;5095751;28;19969;-54
2023/07/16 07:00:10;;;;;;;;;;;21.40;62.60;;;;;;5095707;28;19927;-55
2023/07/16 07:02:37;;;;;;;;;;;21.40;61.90;;;;;;5095673;28;19931;-54
2023/07/16 07:05:05;;;;;;;;;;;21.50;62.00;;;;;;5095591;28;19934;-55
2023/07/16 07:07:32;;;;;;;;;;;21.40;62.20;;;;;;5094676;28;20346;-53
2023/07/16 07:09:59;;;;;;;;;;;21.40;61.80;;;;;;5095882;28;19959;-55
2023/07/16 07:12:26;;;;;;;;;;;21.40;62.40;;;;;;5094230;28;20426;-55
2023/07/16 07:14:52;;;;;;;;;;;21.50;62.10;;;;;;5095509;28;19963;-55
2023/07/16 07:17:20;;;;;;;;;;;21.50;62.40;;;;;;5095631;28;19924;-51
2023/07/16 07:19:47;;;;;;;;;;;21.50;62.70;;;;;;5095383;28;19924;-55
2023/07/16 07:22:14;;;;;;;;;;;21.50;63.10;;;;;;5095647;28;20315;-55
2023/07/16 07:24:41;;;;;;;;;;;21.50;62.80;;;;;;5095277;28;19924;-53
2023/07/16 07:27:08;;;;;;;;;;;21.60;62.90;;;;;;5095382;28;19970;-55
2023/07/16 07:29:35;;;;;;;;;;;21.60;62.90;;;;;;5095515;28;20368;-55
2023/07/16 07:32:02;;;;;;;;;;;21.70;62.90;;;;;;5095334;28;20258;-52
2023/07/16 07:34:29;;;;;;;;;;;21.70;62.40;;;;;;5095146;28;20364;-55
2023/07/16 07:36:55;;;;;;;;;;;21.80;62.20;;;;;;5094987;28;20355;-55
2023/07/16 07:39:23;;;;;;;;;;;21.80;62.50;;;;;;5094688;28;19924;-52
2023/07/16 07:41:50;;;;;;;;;;;21.80;62.40;;;;;;5094769;28;20265;-54
2023/07/16 07:44:17;;;;;;;;;;;21.80;61.70;;;;;;5093953;28;19924;-53
2023/07/16 07:46:44;;;;;;;;;;;21.90;62.40;;;;;;5094861;28;20372;-55
2023/07/16 07:49:11;;;;;;;;;;;21.90;61.90;;;;;;5094518;28;20015;-52
2023/07/16 07:51:37;;;;;;;;;;;21.80;61.80;;;;;;5094707;28;19977;-55
2023/07/16 07:54:04;;;;;;;;;;;21.90;61.90;;;;;;5094758;28;20376;-55
2023/07/16 07:56:31;;;;;;;;;;;21.90;61.90;;;;;;5094579;28;20372;-56
2023/07/16 07:58:58;;;;;;;;;;;21.90;62.20;;;;;;5094404;28;19927;-54
2023/07/16 08:01:26;;;;;;;;;;;21.90;62.20;;;;;;5094029;28;20022;-56
2023/07/16 08:03:53;;;;;;;;;;;21.90;61.80;;;;;;5094595;28;20296;-54
2023/07/16 08:06:21;;;;;;;;;;;21.90;61.90;;;;;;5094535;28;19931;-56
2023/07/16 08:08:48;;;;;;;;;;;21.90;61.80;;;;;;5094835;28;19927;-53
2023/07/16 08:11:15;;;;;;;;;;;22.00;61.70;;;;;;5094248;28;19950;-53
2023/07/16 08:13:42;;;;;;;;;;;22.00;62.10;;;;;;5094590;28;19949;-55
2023/07/16 08:16:09;;;;;;;;;;;21.90;61.60;;;;;;5094391;28;19985;-56
2023/07/16 08:18:36;;;;;;;;;;;22.00;61.50;;;;;;5094164;28;19924;-55
2023/07/16 08:21:03;;;;;;;;;;;22.00;61.20;;;;;;5093758;28;19932;-56
2023/07/16 08:23:30;;;;;;;;;;;21.90;61.10;;;;;;5093801;28;20373;-55
2023/07/16 08:25:57;;;;;;;;;;;21.90;60.60;;;;;;5094304;28;19990;-55
2023/07/16 08:28:24;;;;;;;;;;;21.90;60.30;;;;;;5094096;28;20373;-55
2023/07/16 08:30:51;;;;;;;;;;;21.90;60.50;;;;;;5093593;28;19971;-51
2023/07/16 08:33:18;;;;;;;;;;;21.90;60.50;;;;;;5093970;28;20391;-56
2023/07/16 08:35:45;;;;;;;;;;;21.90;60.90;;;;;;5094036;28;20023;-54
2023/07/16 08:38:12;;;;;;;;;;;21.90;60.60;;;;;;5093800;28;19924;-56
2023/07/16 08:40:39;;;;;;;;;;;21.90;60.70;;;;;;5094402;28;19985;-57
2023/07/16 08:43:07;;;;;;;;;;;21.90;60.80;;;;;;5093923;28;20357;-53
2023/07/16 08:45:36;;;;;;;;;;;21.90;60.80;;;;;;5093614;28;19928;-55
2023/07/16 08:48:03;;;;;;;;;;;21.90;60.80;;;;;;5094091;28;19970;-56
2023/07/16 08:50:30;;;;;;;;;;;21.90;60.60;;;;;;5093377;28;19924;-55
2023/07/16 08:52:59;;;;;;;;;;;21.90;60.30;;;;;;5093699;28;19928;-57
2023/07/16 08:55:26;;;;;;;;;;;22.00;60.40;;;;;;5093823;28;19923;-56
2023/07/16 08:57:53;;;;;;;;;;;21.90;60.60;;;;;;5093181;28;20347;-56
2023/07/16 09:00:20;;;;;;;;;;;21.90;60.50;;;;;;5093460;28;19969;-57
2023/07/16 09:02:47;;;;;;;;;;;21.90;60.60;;;;;;5093842;28;19924;-56
2023/07/16 09:05:15;;;;;;;;;;;21.90;60.80;;;;;;5093934;28;19991;-56
2023/07/16 09:08:02;;;;;;;;;;;21.90;60.80;;;;;;5093556;28;19924;-56
2023/07/16 09:10:29;;;;;;;;;;;21.90;61.00;;;;;;5093684;28;20372;-55
2023/07/16 09:12:57;;;;;;;;;;;21.90;60.90;;;;;;5093487;28;20354;-58
2023/07/16 09:15:28;;;;;;;;;;;21.90;61.00;;;;;;5093908;28;20125;-56
2023/07/16 09:17:55;;;;;;;;;;;21.90;61.20;;;;;;5093249;28;19936;-56
2023/07/16 09:20:27;;;;;;;;;;;21.90;61.10;;;;;;5093011;28;19967;-56
2023/07/16 09:22:57;;;;;;;;;;;21.90;60.90;;;;;;5093476;28;20368;-56
2023/07/16 09:25:31;;;;;;;;;;;21.90;60.90;;;;;;5093840;28;19951;-56
2023/07/16 09:28:01;;;;;;;;;;;22.00;61.10;;;;;;5093414;28;20366;-57
2023/07/16 09:30:35;;;;;;;;;;;22.00;61.00;;;;;;5092738;28;19931;-56
2023/07/16 09:33:18;;;;;;;;;;;22.00;60.90;;;;;;5093645;28;19932;-53
2023/07/16 09:35:47;;;;;;;;;;;21.90;61.00;;;;;;5096642;28;20284;-56
2023/07/16 09:38:14;;;;;;;;;;;21.90;60.30;;;;;;5097245;28;19925;-56
2023/07/16 09:40:45;;;;;;;;;;;21.90;60.70;;;;;;5097707;28;19962;-55
2023/07/16 09:43:12;;;;;;;;;;;21.90;60.50;;;;;;5097240;28;19954;-56
2023/07/16 09:45:39;;;;;;;;;;;21.90;60.60;;;;;;5097397;28;19924;-57
2023/07/16 09:48:06;;;;;;;;;;;21.90;61.00;;;;;;5096356;28;19923;-56
2023/07/16 09:50:34;;;;;;;;;;;21.90;60.90;;;;;;5097027;28;20416;-53
2023/07/16 09:53:03;;;;;;;;;;;21.90;61.10;;;;;;5097242;28;19930;-53
2023/07/16 09:55:32;;;;;;;;;;;21.90;61.80;;;;;;5096989;28;19924;-56
2023/07/16 09:58:00;;;;;;;;;;;21.90;61.30;;;;;;5097212;28;19924;-56
2023/07/16 10:00:27;;;;;;;;;;;22.00;61.00;;;;;;5095909;28;20371;-57
2023/07/16 10:02:55;;;;;;;;;;;21.90;60.90;;;;;;5096867;28;19924;-57
2023/07/16 10:05:25;;;;;;;;;;;21.90;60.50;;;;;;5096867;28;19925;-54
2023/07/16 10:07:58;;;;;;;;;;;21.90;60.20;;;;;;5096624;28;19924;-55
2023/07/16 10:10:39;;;;;;;;;;;21.90;59.80;;;;;;5095268;28;19928;-54
2023/07/16 10:13:08;;;;;;;;;;;21.80;60.00;;;;;;5095404;28;19924;-52
2023/07/16 10:15:35;;;;;;;;;;;21.80;59.70;;;;;;5096644;28;19932;-53
2023/07/16 10:18:02;;;;;;;;;;;21.80;60.10;;;;;;5095910;28;19924;-53
2023/07/16 10:20:30;;;;;;;;;;;21.80;59.30;;;;;;5095974;28;19981;-55
2023/07/16 10:22:57;;;;;;;;;;;21.80;60.00;;;;;;5096803;28;20288;-53
2023/07/16 10:25:27;;;;;;;;;;;21.70;59.30;;;;;;5096586;28;20018;-51
2023/07/16 10:27:54;;;;;;;;;;;21.70;59.70;;;;;;5096682;28;19926;-53
2023/07/16 10:30:21;;;;;;;;;;;21.60;59.40;;;;;;5095765;28;19924;-53
2023/07/16 10:32:50;;;;;;;;;;;21.60;59.70;;;;;;5096010;28;19930;-53
2023/07/16 10:35:17;;;;;;;;;;;21.60;60.00;;;;;;5083331;28;19971;-53
2023/07/16 10:37:44;;;;;;;;;;;21.50;59.80;;;;;;5075692;28;19968;-52
2023/07/16 10:40:12;;;;;;;;;;;21.50;59.80;;;;;;5075248;28;20277;-51
2023/07/16 10:42:43;;;;;;;;;;;21.50;59.20;;;;;;5076140;28;19924;-55
2023/07/16 10:45:11;;;;;;;;;;;21.50;59.10;;;;;;5075926;28;20284;-55
2023/07/16 10:47:40;;;;;;;;;;;21.50;59.80;;;;;;5075719;28;19928;-55
2023/07/16 10:50:08;;;;;;;;;;;21.50;59.70;;;;;;5075160;28;19928;-55
2023/07/16 10:52:37;;;;;;;;;;;21.40;59.50;;;;;;5074711;28;19982;-55
2023/07/16 10:55:04;;;;;;;;;;;21.40;59.40;;;;;;5075610;28;20385;-56
2023/07/16 10:57:31;;;;;;;;;;;21.40;59.80;;;;;;5075512;28;19925;-53
2023/07/16 10:59:58;;;;;;;;;;;21.40;59.80;;;;;;5074860;28;20278;-53
2023/07/16 11:02:26;;;;;;;;;;;21.40;60.30;;;;;;5074060;28;19971;-55
2023/07/16 11:04:53;;;;;;;;;;;21.50;60.10;;;;;;5074677;28;19974;-55
2023/07/16 11:07:21;;;;;;;;;;;21.50;60.60;;;;;;5075317;28;20388;-54
2023/07/16 11:09:49;;;;;;;;;;;21.50;60.70;;;;;;5091930;28;20281;-55
2023/07/16 11:12:21;;;;;;;;;;;21.50;61.00;;;;;;5095459;28;19924;-55
2023/07/16 11:14:50;;;;;;;;;;;21.50;61.20;;;;;;5095438;28;19924;-55
2023/07/16 11:17:22;;;;;;;;;;;21.60;61.00;;;;;;5094779;28;19924;-55
2023/07/16 11:19:50;;;;;;;;;;;21.60;61.30;;;;;;5094283;28;19982;-55
2023/07/16 11:22:18;;;;;;;;;;;21.70;61.30;;;;;;5095347;28;19924;-55
2023/07/16 11:24:46;;;;;;;;;;;21.70;61.10;;;;;;5093252;28;20011;-56
2023/07/16 11:27:21;;;;;;;;;;;21.80;61.50;;;;;;5073464;28;19970;-55
2023/07/16 11:29:48;;;;;;;;;;;21.80;60.90;;;;;;5075139;28;19979;-54
2023/07/16 11:32:35;;;;;;;;;;;21.90;60.80;;;;;;5074562;28;19951;-56
2023/07/16 11:35:04;;;;;;;;;;;21.90;60.50;;;;;;5075127;28;19930;-55
2023/07/16 11:37:31;;;;;;;;;;;21.90;60.20;;;;;;5075078;28;19968;-55
2023/07/16 11:40:00;;;;;;;;;;;21.90;60.10;;;;;;5073885;28;19978;-55
2023/07/16 11:42:28;;;;;;;;;;;21.90;60.20;;;;;;5074698;28;20377;-56
2023/07/16 11:44:55;;;;;;;;;;;21.90;59.70;;;;;;5074732;28;19982;-55
2023/07/16 11:47:23;;;;;;;;;;;21.90;59.50;;;;;;5085083;28;20288;-56
2023/07/16 11:49:50;;;;;;;;;;;21.80;59.30;;;;;;5094818;28;19966;-55
2023/07/16 11:52:24;;;;;;;;;;;21.80;60.00;;;;;;5094823;28;19924;-55
2023/07/16 11:54:54;;;;;;;;;;;21.80;59.60;;;;;;5094728;28;20353;-56
2023/07/16 11:57:21;;;;;;;;;;;21.80;59.70;;;;;;5093969;28;19966;-54
2023/07/16 11:59:48;;;;;;;;;;;21.80;59.70;;;;;;5094984;28;20011;-56
2023/07/16 12:02:15;;;;;;;;;;;21.70;59.70;;;;;;5094576;28;19978;-54
2023/07/16 12:04:42;;;;;;;;;;;21.70;60.00;;;;;;5094808;28;20265;-56
2023/07/16 12:07:10;;;;;;;;;;;21.70;60.00;;;;;;5094331;28;20360;-55
2023/07/16 12:09:37;;;;;;;;;;;21.70;60.20;;;;;;5094145;28;19924;-55
2023/07/16 12:12:04;;;;;;;;;;;21.70;60.40;;;;;;5094147;28;19963;-55
2023/07/16 12:14:31;;;;;;;;;;;21.70;60.30;;;;;;5093129;28;19967;-55
2023/07/16 12:16:58;;;;;;;;;;;21.70;60.40;;;;;;5094641;28;19924;-56
2023/07/16 12:19:25;;;;;;;;;;;21.70;60.10;;;;;;5094223;28;20135;-56
2023/07/16 12:21:52;;;;;;;;;;;21.70;60.00;;;;;;5093638;28;19924;-56
2023/07/16 12:24:20;;;;;;;;;;;21.70;59.80;;;;;;5094358;28;19969;-54
2023/07/16 12:26:47;;;;;;;;;;;21.60;60.30;;;;;;5094445;28;20307;-55
2023/07/16 12:29:14;;;;;;;;;;;21.70;60.20;;;;;;5093963;28;19959;-58
2023/07/16 12:31:41;;;;;;;;;;;21.60;60.70;;;;;;5094031;28;20333;-54
2023/07/16 12:34:08;;;;;;;;;;;21.60;60.80;;;;;;5094217;28;20401;-54
2023/07/16 12:36:35;;;;;;;;;;;21.60;60.40;;;;;;5093793;28;19959;-55
2023/07/16 12:39:02;;;;;;;;;;;21.60;60.00;;;;;;5093355;28;19946;-55
2023/07/16 12:41:29;;;;;;;;;;;21.60;60.60;;;;;;5093927;28;19936;-55
2023/07/16 12:43:56;;;;;;;;;;;21.60;60.70;;;;;;5093960;28;20380;-56
2023/07/16 12:46:23;;;;;;;;;;;21.60;60.90;;;;;;5093845;28;19924;-55
2023/07/16 12:48:50;;;;;;;;;;;21.70;60.80;;;;;;5093338;28;19982;-55
2023/07/16 12:51:17;;;;;;;;;;;21.70;60.70;;;;;;5093016;28;19970;-55
2023/07/16 12:53:44;;;;;;;;;;;21.60;60.50;;;;;;5094001;28;20014;-55
2023/07/16 12:56:11;;;;;;;;;;;21.70;60.80;;;;;;5092980;28;19924;-54
2023/07/16 12:58:38;;;;;;;;;;;21.60;60.50;;;;;;5093323;28;19969;-52
2023/07/16 13:01:05;;;;;;;;;;;21.60;60.80;;;;;;5093972;28;20269;-55
2023/07/16 13:03:32;;;;;;;;;;;21.70;60.50;;;;;;5094025;28;19924;-52
2023/07/16 13:05:59;;;;;;;;;;;21.70;60.50;;;;;;5093626;28;19924;-56
2023/07/16 13:08:26;;;;;;;;;;;21.70;60.50;;;;;;5094013;28;19973;-53
2023/07/16 13:10:54;;;;;;;;;;;21.70;60.10;;;;;;5098319;28;19931;-56
2023/07/16 13:13:21;;;;;;;;;;;21.70;60.10;;;;;;5097754;28;20368;-59
2023/07/16 13:15:48;;;;;;;;;;;21.60;60.30;;;;;;5097765;28;19950;-56
2023/07/16 13:18:15;;;;;;;;;;;21.70;60.00;;;;;;5097195;28;19928;-56
2023/07/16 13:20:42;;;;;;;;;;;21.60;59.30;;;;;;5097162;28;20335;-56
2023/07/16 13:23:09;;;;;;;;;;;21.60;60.00;;;;;;5097653;28;19931;-53
2023/07/16 13:25:38;;;;;;;;;;;21.60;59.40;;;;;;5098011;28;20300;-55
2023/07/16 13:28:05;;;;;;;;;;;21.50;59.60;;;;;;5097618;28;19931;-56
2023/07/16 13:30:33;;;;;;;;;;;21.50;60.00;;;;;;5096031;28;19928;-55
2023/07/16 13:33:01;;;;;;;;;;;21.60;59.80;;;;;;5097287;28;19924;-56
2023/07/16 13:35:28;;;;;;;;;;;21.50;59.80;;;;;;5096342;28;19930;-55
2023/07/16 13:37:55;;;;;;;;;;;21.50;59.90;;;;;;5097573;28;19924;-51
2023/07/16 13:40:22;;;;;;;;;;;21.60;60.20;;;;;;5097279;28;19970;-56
2023/07/16 13:42:49;;;;;;;;;;;21.60;59.70;;;;;;5097290;28;19928;-56
2023/07/16 13:45:16;;;;;;;;;;;21.60;59.50;;;;;;5097614;28;19982;-55
2023/07/16 13:47:43;;;;;;;;;;;21.60;59.60;;;;;;5097213;28;20380;-53
2023/07/16 13:50:10;;;;;;;;;;;21.60;59.90;;;;;;5097540;28;19938;-56
2023/07/16 13:52:37;;;;;;;;;;;21.60;60.20;;;;;;5097320;28;19924;-55
2023/07/16 13:55:05;;;;;;;;;;;21.60;59.80;;;;;;5096777;28;19931;-55
2023/07/16 13:57:34;;;;;;;;;;;21.60;60.00;;;;;;5097021;28;19931;-55
2023/07/16 14:00:01;;;;;;;;;;;21.60;60.10;;;;;;5097130;28;19993;-53
2023/07/16 14:02:29;;;;;;;;;;;21.60;60.20;;;;;;5097159;28;19924;-55
2023/07/16 14:04:56;;;;;;;;;;;21.70;64.60;;;;;;5097210;28;19924;-54
2023/07/16 14:07:23;;;;;;;;;;;21.90;68.30;;;;;;5096546;28;19977;-56
2023/07/16 14:09:50;;;;;;;;;;;22.20;69.70;;;;;;5096858;28;19978;-55
2023/07/16 14:12:17;;;;;;;;;;;22.50;70.40;;;;;;5096625;28;19924;-56
2023/07/16 14:14:44;;;;;;;;;;;22.80;70.10;;;;;;5096640;28;20261;-56
2023/07/16 14:17:11;;;;;;;;;;;23.20;69.80;;;;;;5096555;28;19924;-57
2023/07/16 14:19:38;;;;;;;;;;;23.40;69.50;;;;;;5096315;28;19938;-57